Valle Toledo, Valles Caldera, New Mexico Weather observations

Data are for 10 minute period ending at time listed.
 Day   Time   Solar   Ave.   Ave.  Ave.  Vector  Max.   Baro.   Total    
  of    of     Rad.   Air    Rel.  Wind   Wind   Wind  Press.  Precip.   
Year   Day            Temp.  Hum.  Speed  Dir.   Gust                    
2015   (MST)  Kw/m2    F      %     mph   deg.    mph    mb.     in.     
-------------------------------------------------------------------------
  90   10:30   0.94   58.4    16    6.8   254    10.8   733.4    0.00 
  90   10:40   0.75   58.4    17    5.5   212    11.3   733.4    0.00 
  90   10:50   0.93   60.9    16    5.1   286    10.8   733.3    0.00 
  90   11:00   0.25   58.0    16    5.1   305    11.3   733.3    0.00 
  90   11:10   0.23   55.5    21   10.3   296    20.9   733.4    0.00 
  90   11:20   0.12   52.1    25   12.5   319    22.1   733.5    0.00 
  90   11:30   0.16   51.2    25    7.4    22    14.9   733.6    0.00 
  90   11:40   0.29   52.6    22    6.7    58    13.1   733.4    0.00 
  90   11:50   0.48   54.2    21    4.1    13     8.4   733.2    0.00 
  90   12:00   0.87   57.7    18    5.1   271     9.6   733.1    0.00 
  90   12:10   0.43   57.5    18    3.8   287     7.8   732.9    0.00 
  90   12:20   0.21   56.1    18    2.7   223     6.0   732.9    0.00 
  90   12:30   0.61   55.2    21    8.3   169    12.5   732.7    0.00 
  90   12:40   1.02   56.4    22    9.8   121    15.5   732.5    0.00 
  90   12:50   0.52   56.1    23   10.3   134    18.5   732.3    0.00 
  90   13:00   0.20   53.5    25    7.5   121    13.7   732.4    0.00 
  90   13:10   0.20   53.0    25    6.3   120    11.9   732.3    0.00 
  90   13:20   0.25   53.2    25    6.7   128    11.9   732.2    0.00 
  90   13:30   0.21   53.2    24    7.0   127    10.8   732.0    0.00 
  90   13:40   0.39   53.5    25    6.5   141    11.3   731.9    0.00 
  90   13:50   0.46   55.5    23    7.2   148    13.7   731.8    0.00 
  90   14:00   0.16   53.7    22    5.6   125    11.3   731.7    0.00 
  90   14:10   0.12   53.4    22    3.8   100     8.4   731.7    0.00 
  90   14:20   0.10   53.2    24    4.1   101     9.0   731.6    0.00 
  90   14:30   0.12   52.4    23    7.0    97    10.8   731.4    0.00 
  90   14:40   0.13   52.3    24    5.5    88     9.0   731.4    0.00 
  90   14:50   0.14   52.3    25    4.8   122     7.8   731.3    0.00 
  90   15:00   0.10   52.0    25    5.8   111     7.8   731.1    0.00 
  90   15:10   0.10   51.8    25    5.5   100     8.4   731.0    0.00 
  90   15:20   0.08   52.2    22    2.5    66     6.0   730.9    0.00 
  90   15:30   0.12   53.0    22    3.0   307     6.0   730.9    0.00 
  90   15:40   0.12   53.2    22    4.7   297     9.0   730.8    0.00 
  90   15:50   0.21   52.9    24    7.8   162    21.5   730.7    0.00 
  90   16:00   0.19   53.2    22    6.2   216    11.3   730.8    0.00 
  90   16:10   0.34   53.8    24    5.1   219    11.3   731.0    0.00 
  90   16:20   0.15   54.0    23    2.8   147     4.8   730.7    0.00 
  90   16:30   0.08   53.2    23    2.4   254     5.4   730.6    0.00 
  90   16:40   0.07   52.0    25    4.7   157    11.3   730.7    0.00 
  90   16:50   0.08   51.8    26    3.5   160     6.0   730.9    0.00 
  90   17:00   0.16   51.6    27    8.5   229    18.5   731.1    0.00 
  90   17:10   0.31   52.5    27    5.5   135     9.6   731.1    0.00 
  90   17:20   0.13   52.6    27    4.5    97     8.4   730.8    0.00 
  90   17:30   0.12   51.6    27    2.9    88     4.2   730.6    0.00 
  90   17:40   0.18   53.3    25    2.4    84     3.6   730.5    0.00 
  90   17:50   0.14   55.4    22    1.7   129     3.0   730.4    0.00 
  90   18:00   0.07   54.3    22    1.6   158     4.2   730.3    0.00 
  90   18:10   0.02   52.4    25    2.1    38     3.0   730.3    0.00 
  90   18:20   0.01   49.8    28    3.5    37     4.2   730.3    0.00 
  90   18:30   0.01   47.4    32    3.9    38     4.8   730.3    0.00 
  90   18:40   0.00   45.2    38    4.3    43     5.4   730.3    0.00 
  90   18:50   0.00   43.4    40    4.7    36     5.4   730.3    0.00 
  90   19:00   0.00   42.2    41    4.5    34     5.4   730.4    0.00 
  90   19:10   0.00   41.7    40    4.5    36     5.4   730.4    0.00 
  90   19:20   0.00   41.6    41    3.9    40     6.0   730.4    0.00 
  90   19:30   0.00   41.1    42    4.8    36     5.4   730.4    0.00 
  90   19:40   0.00   40.8    42    4.6    36     6.0   730.4    0.00 
  90   19:50   0.00   40.1    43    2.6    22     4.2   730.4    0.00 
  90   20:00   0.00   39.6    46    3.4    44     4.8   730.4    0.00 
  90   20:10   0.00   39.9    43    3.2    50     4.8   730.4    0.00 
  90   20:20   0.00   39.4    45    4.0    41     4.8   730.3    0.00 
  90   20:30   0.00   39.1    46    3.9    42     5.4   730.3    0.00 
  90   20:40   0.00   38.5    46    2.7     8     4.2   730.2    0.00 
  90   20:50   0.00   37.9    47    3.1    28     4.2   730.2    0.00 
  90   21:00   0.00   37.7    49    3.0    48     4.2   730.0    0.00 
  90   21:10   0.00   38.3    46    3.0    59     4.8   730.1    0.00 
  90   21:20   0.00   38.1    46    3.1    42     4.2   730.0    0.00 
  90   21:30   0.00   37.9    46    3.3    30     5.4   730.0    0.00 
  90   21:40   0.00   37.4    47    3.6    35     5.4   729.9    0.00 
  90   21:50   0.00   37.4    46    2.8    44     4.8   729.9    0.00 
  90   22:00   0.00   37.2    47    2.9    19     4.8   729.8    0.00 
  90   22:10   0.00   37.0    45    2.3    30     4.2   729.9    0.00 
  90   22:20   0.00   36.5    50    3.7    43     5.4   729.8    0.00 
  90   22:30   0.00   36.6    48    3.6    45     4.8   729.7    0.00 
  90   22:40   0.00   36.7    47    2.8    32     4.2   729.7    0.00 
  90   22:50   0.00   36.3    48    2.4    36     4.2   729.7    0.00 
  90   23:00   0.00   35.7    50    2.4   360     4.8   729.7    0.00 
  90   23:10   0.00   35.5    51    2.5    51     4.2   729.6    0.00 
  90   23:20   0.00   35.9    50    2.2   352     4.2   729.7    0.00 
  90   23:30   0.00   35.5    49    2.6   350     5.4   729.8    0.00 
  90   23:40   0.00   35.1    51    3.7    35     5.4   729.7    0.00 
  90   23:50   0.00   35.2    51    4.0    45     7.2   729.7    0.00 
  91    0:00   0.00   34.9    50    2.5    33     4.8   729.7    0.00 
  91    0:10   0.00   36.1    46    4.2    40     5.4   729.6    0.00 
  91    0:20   0.00   36.5    47    3.3    54     4.8   729.6    0.00 
  91    0:30   0.00   36.8    44    3.3    37     4.8   729.5    0.00 
  91    0:40   0.00   37.0    44    3.4    35     4.8   729.4    0.00 
  91    0:50   0.00   37.4    44    3.9    37     4.8   729.4    0.00 
  91    1:00   0.00   37.4    44    3.6    34     4.8   729.4    0.00 
  91    1:10   0.00   37.2    44    3.4    36     4.8   729.4    0.00 
  91    1:20   0.00   37.3    43    3.6    39     4.8   729.4    0.00 
  91    1:30   0.00   37.0    44    4.0    26     5.4   729.4    0.00 
  91    1:40   0.00   37.9    42    3.5    18     4.8   729.4    0.00 
  91    1:50   0.00   39.0    40    3.9   348     6.0   729.4    0.00 
  91    2:00   0.00   39.2    40    3.6     6     5.4   729.2    0.00 
  91    2:10   0.00   38.8    41    3.3    22     4.2   729.2    0.00 
  91    2:20   0.00   38.5    43    2.9    10     4.2   729.1    0.00 
  91    2:30   0.00   38.3    44    3.7    29     4.8   729.1    0.00 
  91    2:40   0.00   37.9    44    4.1    30     5.4   729.1    0.00 
  91    2:50   0.00   37.2    47    4.2    33     6.0   729.1    0.00 
  91    3:00   0.00   36.6    49    3.7    32     5.4   728.9    0.00 
  91    3:10   0.00   37.1    48    3.1    33     5.4   728.9    0.00 
  91    3:20   0.00   37.7    48    3.0    15     5.4   728.8    0.00 
  91    3:30   0.00   38.2    48    2.1    50     3.6   728.7    0.00 
  91    3:40   0.00   37.3    50    2.6    79     5.4   728.7    0.00 
  91    3:50   0.00   36.9    51    2.6    46     4.2   728.7    0.00 
  91    4:00   0.00   36.7    53    2.9     6     4.8   728.6    0.00 
  91    4:10   0.00   36.2    55    3.2    24     4.8   728.6    0.00 
  91    4:20   0.00   35.5    57    3.3    30     5.4   728.4    0.00 
  91    4:30   0.00   35.0    58    3.6    37     5.4   728.5    0.00 
  91    4:40   0.00   35.0    59    3.5    42     5.4   728.4    0.00 
  91    4:50   0.00   34.7    61    3.8    59     6.0   728.4    0.00 
  91    5:00   0.00   35.3    59    3.7    50     6.0   728.3    0.00 
  91    5:10   0.00   36.4    57    3.7    42     6.6   728.2    0.00 
  91    5:20   0.00   35.5    59    3.2    36     4.8   728.3    0.00 
  91    5:30   0.00   35.5    60    3.5    61     6.0   728.4    0.00 
  91    5:40   0.00   34.8    61    3.3    73     4.2   728.4    0.00 
  91    5:50   0.00   34.6    62    3.7    65     5.4   728.3    0.00 
  91    6:00   0.00   34.4    62    3.4    57     5.4   728.4    0.00 
  91    6:10   0.01   35.4    60    3.6    92     5.4   728.5    0.00 
  91    6:20   0.02   35.9    59    3.6    72     5.4   728.6    0.00 
  91    6:30   0.03   36.3    58    3.7    73     5.4   728.7    0.00 
  91    6:40   0.03   35.6    61    4.0    76     5.4   728.8    0.00 
  91    6:50   0.03   35.9    60    3.7    68     4.8   728.9    0.00 
  91    7:00   0.04   36.1    59    4.0    82     5.4   728.9    0.00 
  91    7:10   0.06   36.7    59    3.9    76     4.8   728.9    0.00 
  91    7:20   0.09   37.2    59    4.2    77     6.0   728.9    0.00 
  91    7:30   0.05   38.0    58    3.6    87     6.0   728.9    0.00 
  91    7:40   0.08   38.5    57    4.2   112     6.6   729.0    0.00 
  91    7:50   0.29   40.6    53    4.3   140     6.6   729.0    0.00 
  91    8:00   0.37   42.5    49    4.8   153     7.2   729.0    0.00 
  91    8:10   0.41   43.5    47    3.7   175     5.4   729.0    0.00 
  91    8:20   0.45   45.2    45    3.5   242     7.8   729.0    0.00 
  91    8:30   0.47   46.9    44    4.1   280     9.6   729.0    0.00 
  91    8:40   0.51   47.8    41    9.3   277    20.3   729.1    0.00 
  91    8:50   0.58   48.6    37   11.4   274    23.3   729.0    0.00 
  91    9:00   0.37   48.1    37   11.4   274    23.3   729.1    0.00 
  91    9:10   0.57   48.4    35   11.9   268    23.9   729.1    0.00 
  91    9:20   0.65   49.1    32   13.3   269    26.2   729.2    0.00 
  91    9:30   0.69   50.2    31   11.4   277    21.5   729.1    0.00 
  91    9:40   0.73   50.5    29   11.7   269    25.0   729.1    0.00 
  91    9:50   0.77   50.9    28   11.5   264    21.5   729.1    0.00 
  91   10:00   0.79   50.3    29   12.3   272    20.9   729.1    0.00 
  91   10:10   0.83   50.5    30   12.2   259    28.6   728.9    0.00 
  91   10:20   0.87   50.8    30   11.9   255    22.1   728.8    0.00 

Return to Valle Toledo, Valles Caldera graphs page.


Western Regional Climate Center,wrcc@dri.edu